sensor_id;sensor_type;location;lat;lon;timestamp;P1;durP1;ratioP1;P2;durP2;ratioP2
59306;SDS011;47983;53.016;-2.260;2023-07-16T00:01:32;3.42;;;0.77;;
59306;SDS011;47983;53.016;-2.260;2023-07-16T00:04:00;8.52;;;1.33;;
59306;SDS011;47983;53.016;-2.260;2023-07-16T00:06:28;5.18;;;1.55;;
59306;SDS011;47983;53.016;-2.260;2023-07-16T00:08:55;6.03;;;0.93;;
59306;SDS011;47983;53.016;-2.260;2023-07-16T00:11:23;6.53;;;1.40;;
59306;SDS011;47983;53.016;-2.260;2023-07-16T00:13:51;3.08;;;0.90;;
59306;SDS011;47983;53.016;-2.260;2023-07-16T00:16:19;10.07;;;1.50;;
59306;SDS011;47983;53.016;-2.260;2023-07-16T00:18:48;3.50;;;0.90;;
59306;SDS011;47983;53.016;-2.260;2023-07-16T00:21:16;9.75;;;1.27;;
59306;SDS011;47983;53.016;-2.260;2023-07-16T00:23:44;7.50;;;1.27;;
59306;SDS011;47983;53.016;-2.260;2023-07-16T00:26:12;8.63;;;1.73;;
59306;SDS011;47983;53.016;-2.260;2023-07-16T00:28:41;4.68;;;0.95;;
59306;SDS011;47983;53.016;-2.260;2023-07-16T00:31:09;4.78;;;1.48;;
59306;SDS011;47983;53.016;-2.260;2023-07-16T00:33:37;6.10;;;0.80;;
59306;SDS011;47983;53.016;-2.260;2023-07-16T00:36:04;4.15;;;1.05;;
59306;SDS011;47983;53.016;-2.260;2023-07-16T00:38:32;5.30;;;1.10;;
59306;SDS011;47983;53.016;-2.260;2023-07-16T00:41:00;5.63;;;1.23;;
59306;SDS011;47983;53.016;-2.260;2023-07-16T00:43:27;8.00;;;1.27;;
59306;SDS011;47983;53.016;-2.260;2023-07-16T00:45:56;6.45;;;1.23;;
59306;SDS011;47983;53.016;-2.260;2023-07-16T00:48:24;5.63;;;0.88;;
59306;SDS011;47983;53.016;-2.260;2023-07-16T00:50:52;6.70;;;1.00;;
59306;SDS011;47983;53.016;-2.260;2023-07-16T00:53:21;6.45;;;1.05;;
59306;SDS011;47983;53.016;-2.260;2023-07-16T00:55:49;4.45;;;1.30;;
59306;SDS011;47983;53.016;-2.260;2023-07-16T00:58:19;3.43;;;0.70;;
59306;SDS011;47983;53.016;-2.260;2023-07-16T01:00:47;9.13;;;1.00;;
59306;SDS011;47983;53.016;-2.260;2023-07-16T01:03:15;6.95;;;1.10;;
59306;SDS011;47983;53.016;-2.260;2023-07-16T01:05:55;3.38;;;0.98;;
59306;SDS011;47983;53.016;-2.260;2023-07-16T01:08:35;6.63;;;1.17;;
59306;SDS011;47983;53.016;-2.260;2023-07-16T01:11:08;7.32;;;1.10;;
59306;SDS011;47983;53.016;-2.260;2023-07-16T01:13:37;5.72;;;0.90;;
59306;SDS011;47983;53.016;-2.260;2023-07-16T01:16:07;5.55;;;1.50;;
59306;SDS011;47983;53.016;-2.260;2023-07-16T01:18:53;7.57;;;1.73;;
59306;SDS011;47983;53.016;-2.260;2023-07-16T01:21:21;5.93;;;1.13;;
59306;SDS011;47983;53.016;-2.260;2023-07-16T01:29:37;6.15;;;0.98;;
59306;SDS011;47983;53.016;-2.260;2023-07-16T01:32:13;6.78;;;1.05;;
59306;SDS011;47983;53.016;-2.260;2023-07-16T01:34:42;10.50;;;1.10;;
59306;SDS011;47983;53.016;-2.260;2023-07-16T01:37:11;6.40;;;0.93;;
59306;SDS011;47983;53.016;-2.260;2023-07-16T01:39:38;5.60;;;1.38;;
59306;SDS011;47983;53.016;-2.260;2023-07-16T01:42:07;9.52;;;1.33;;
59306;SDS011;47983;53.016;-2.260;2023-07-16T01:44:34;7.18;;;0.93;;
59306;SDS011;47983;53.016;-2.260;2023-07-16T01:49:37;5.07;;;1.25;;
59306;SDS011;47983;53.016;-2.260;2023-07-16T01:52:06;3.78;;;0.88;;
59306;SDS011;47983;53.016;-2.260;2023-07-16T01:54:36;6.63;;;1.65;;
59306;SDS011;47983;53.016;-2.260;2023-07-16T01:57:04;10.48;;;1.20;;
59306;SDS011;47983;53.016;-2.260;2023-07-16T01:59:32;10.45;;;1.27;;
59306;SDS011;47983;53.016;-2.260;2023-07-16T02:01:59;8.45;;;1.10;;
59306;SDS011;47983;53.016;-2.260;2023-07-16T02:04:27;6.35;;;1.00;;
59306;SDS011;47983;53.016;-2.260;2023-07-16T02:06:58;8.43;;;1.20;;
59306;SDS011;47983;53.016;-2.260;2023-07-16T02:09:25;3.90;;;0.90;;
59306;SDS011;47983;53.016;-2.260;2023-07-16T02:11:53;7.18;;;1.50;;
59306;SDS011;47983;53.016;-2.260;2023-07-16T02:14:22;5.90;;;2.15;;
59306;SDS011;47983;53.016;-2.260;2023-07-16T02:16:49;7.32;;;1.50;;
59306;SDS011;47983;53.016;-2.260;2023-07-16T02:19:17;6.97;;;1.17;;
59306;SDS011;47983;53.016;-2.260;2023-07-16T02:21:44;8.85;;;1.33;;
59306;SDS011;47983;53.016;-2.260;2023-07-16T02:24:12;9.48;;;1.20;;
59306;SDS011;47983;53.016;-2.260;2023-07-16T02:26:40;9.18;;;1.30;;
59306;SDS011;47983;53.016;-2.260;2023-07-16T02:29:10;8.40;;;1.52;;
59306;SDS011;47983;53.016;-2.260;2023-07-16T02:31:38;8.43;;;1.23;;
59306;SDS011;47983;53.016;-2.260;2023-07-16T02:34:06;5.65;;;1.25;;
59306;SDS011;47983;53.016;-2.260;2023-07-16T02:36:33;6.82;;;1.05;;
59306;SDS011;47983;53.016;-2.260;2023-07-16T02:39:01;4.18;;;1.30;;
59306;SDS011;47983;53.016;-2.260;2023-07-16T02:41:32;4.72;;;0.95;;
59306;SDS011;47983;53.016;-2.260;2023-07-16T02:44:00;6.38;;;1.30;;
59306;SDS011;47983;53.016;-2.260;2023-07-16T02:48:57;6.47;;;1.23;;
59306;SDS011;47983;53.016;-2.260;2023-07-16T02:51:25;1.65;;;0.68;;
59306;SDS011;47983;53.016;-2.260;2023-07-16T02:53:53;9.85;;;1.42;;
59306;SDS011;47983;53.016;-2.260;2023-07-16T02:56:21;6.40;;;1.20;;
59306;SDS011;47983;53.016;-2.260;2023-07-16T02:58:48;4.00;;;1.23;;
59306;SDS011;47983;53.016;-2.260;2023-07-16T03:01:16;4.63;;;0.73;;
59306;SDS011;47983;53.016;-2.260;2023-07-16T03:03:44;8.05;;;1.10;;
59306;SDS011;47983;53.016;-2.260;2023-07-16T03:06:12;5.22;;;1.20;;
59306;SDS011;47983;53.016;-2.260;2023-07-16T03:08:39;5.43;;;0.75;;
59306;SDS011;47983;53.016;-2.260;2023-07-16T03:11:08;5.35;;;0.95;;
59306;SDS011;47983;53.016;-2.260;2023-07-16T03:13:36;4.00;;;0.95;;
59306;SDS011;47983;53.016;-2.260;2023-07-16T03:16:04;5.25;;;1.08;;
59306;SDS011;47983;53.016;-2.260;2023-07-16T03:18:31;8.48;;;1.95;;
59306;SDS011;47983;53.016;-2.260;2023-07-16T03:21:00;5.18;;;1.17;;
59306;SDS011;47983;53.016;-2.260;2023-07-16T03:23:27;4.13;;;0.77;;
59306;SDS011;47983;53.016;-2.260;2023-07-16T03:25:55;4.35;;;1.35;;
59306;SDS011;47983;53.016;-2.260;2023-07-16T03:28:23;4.38;;;1.05;;
59306;SDS011;47983;53.016;-2.260;2023-07-16T03:30:51;7.82;;;1.27;;
59306;SDS011;47983;53.016;-2.260;2023-07-16T03:33:19;4.30;;;1.20;;
59306;SDS011;47983;53.016;-2.260;2023-07-16T03:35:48;4.90;;;1.80;;
59306;SDS011;47983;53.016;-2.260;2023-07-16T03:38:18;6.18;;;1.17;;
59306;SDS011;47983;53.016;-2.260;2023-07-16T03:40:46;6.40;;;1.00;;
59306;SDS011;47983;53.016;-2.260;2023-07-16T03:43:16;11.25;;;1.10;;
59306;SDS011;47983;53.016;-2.260;2023-07-16T03:45:44;8.35;;;1.35;;
59306;SDS011;47983;53.016;-2.260;2023-07-16T03:48:12;9.52;;;1.27;;
59306;SDS011;47983;53.016;-2.260;2023-07-16T03:50:40;2.72;;;1.05;;
59306;SDS011;47983;53.016;-2.260;2023-07-16T03:53:08;5.15;;;1.05;;
59306;SDS011;47983;53.016;-2.260;2023-07-16T03:55:36;2.72;;;0.57;;
59306;SDS011;47983;53.016;-2.260;2023-07-16T03:58:04;6.55;;;0.90;;
59306;SDS011;47983;53.016;-2.260;2023-07-16T04:00:31;3.38;;;0.80;;
59306;SDS011;47983;53.016;-2.260;2023-07-16T04:02:59;4.30;;;0.85;;
59306;SDS011;47983;53.016;-2.260;2023-07-16T04:05:27;5.00;;;1.02;;
59306;SDS011;47983;53.016;-2.260;2023-07-16T04:07:55;2.97;;;0.77;;
59306;SDS011;47983;53.016;-2.260;2023-07-16T04:10:23;7.05;;;1.90;;
59306;SDS011;47983;53.016;-2.260;2023-07-16T04:12:50;5.30;;;1.05;;
59306;SDS011;47983;53.016;-2.260;2023-07-16T04:15:18;1.95;;;0.60;;
59306;SDS011;47983;53.016;-2.260;2023-07-16T04:17:46;5.35;;;0.77;;
59306;SDS011;47983;53.016;-2.260;2023-07-16T04:20:13;6.53;;;1.30;;
59306;SDS011;47983;53.016;-2.260;2023-07-16T04:22:41;4.78;;;0.80;;
59306;SDS011;47983;53.016;-2.260;2023-07-16T04:25:08;2.22;;;0.70;;
59306;SDS011;47983;53.016;-2.260;2023-07-16T04:27:36;4.15;;;1.00;;
59306;SDS011;47983;53.016;-2.260;2023-07-16T04:30:04;4.80;;;0.75;;
59306;SDS011;47983;53.016;-2.260;2023-07-16T04:32:33;4.78;;;0.60;;
59306;SDS011;47983;53.016;-2.260;2023-07-16T04:35:00;4.97;;;1.17;;
59306;SDS011;47983;53.016;-2.260;2023-07-16T04:37:30;3.10;;;1.08;;
59306;SDS011;47983;53.016;-2.260;2023-07-16T04:39:58;5.22;;;1.40;;
59306;SDS011;47983;53.016;-2.260;2023-07-16T04:42:26;3.30;;;0.80;;
59306;SDS011;47983;53.016;-2.260;2023-07-16T04:44:53;5.35;;;1.10;;
59306;SDS011;47983;53.016;-2.260;2023-07-16T04:47:21;4.05;;;0.80;;
59306;SDS011;47983;53.016;-2.260;2023-07-16T04:49:50;2.42;;;0.90;;
59306;SDS011;47983;53.016;-2.260;2023-07-16T04:52:18;5.45;;;0.95;;
59306;SDS011;47983;53.016;-2.260;2023-07-16T04:54:46;6.45;;;0.90;;
59306;SDS011;47983;53.016;-2.260;2023-07-16T04:57:14;4.18;;;0.80;;
59306;SDS011;47983;53.016;-2.260;2023-07-16T04:59:42;5.05;;;0.80;;
59306;SDS011;47983;53.016;-2.260;2023-07-16T05:02:09;2.42;;;0.90;;
59306;SDS011;47983;53.016;-2.260;2023-07-16T05:04:37;4.38;;;1.10;;
59306;SDS011;47983;53.016;-2.260;2023-07-16T05:07:05;5.80;;;0.90;;
59306;SDS011;47983;53.016;-2.260;2023-07-16T05:09:33;5.85;;;1.20;;
59306;SDS011;47983;53.016;-2.260;2023-07-16T05:12:00;3.50;;;1.02;;
59306;SDS011;47983;53.016;-2.260;2023-07-16T05:14:29;1.40;;;0.98;;
59306;SDS011;47983;53.016;-2.260;2023-07-16T05:16:57;7.95;;;1.63;;
59306;SDS011;47983;53.016;-2.260;2023-07-16T05:19:25;2.53;;;0.85;;
59306;SDS011;47983;53.016;-2.260;2023-07-16T05:21:53;4.03;;;0.98;;
59306;SDS011;47983;53.016;-2.260;2023-07-16T05:24:21;4.95;;;0.73;;
59306;SDS011;47983;53.016;-2.260;2023-07-16T05:26:49;3.03;;;0.70;;
59306;SDS011;47983;53.016;-2.260;2023-07-16T05:29:18;5.70;;;0.90;;
59306;SDS011;47983;53.016;-2.260;2023-07-16T05:31:45;5.20;;;1.73;;
59306;SDS011;47983;53.016;-2.260;2023-07-16T05:34:13;3.95;;;1.00;;
59306;SDS011;47983;53.016;-2.260;2023-07-16T05:36:41;5.95;;;1.38;;
59306;SDS011;47983;53.016;-2.260;2023-07-16T05:39:09;2.97;;;0.90;;
59306;SDS011;47983;53.016;-2.260;2023-07-16T05:41:39;6.20;;;1.13;;
59306;SDS011;47983;53.016;-2.260;2023-07-16T05:44:08;4.75;;;1.00;;
59306;SDS011;47983;53.016;-2.260;2023-07-16T05:46:35;5.18;;;1.75;;
59306;SDS011;47983;53.016;-2.260;2023-07-16T05:49:03;5.50;;;1.83;;
59306;SDS011;47983;53.016;-2.260;2023-07-16T05:51:31;3.25;;;1.17;;
59306;SDS011;47983;53.016;-2.260;2023-07-16T05:53:58;3.85;;;1.48;;
59306;SDS011;47983;53.016;-2.260;2023-07-16T05:56:26;6.32;;;1.00;;
59306;SDS011;47983;53.016;-2.260;2023-07-16T05:58:54;9.52;;;1.30;;
59306;SDS011;47983;53.016;-2.260;2023-07-16T06:01:21;4.50;;;1.10;;
59306;SDS011;47983;53.016;-2.260;2023-07-16T06:03:49;6.03;;;1.25;;
59306;SDS011;47983;53.016;-2.260;2023-07-16T06:06:17;8.23;;;2.05;;
59306;SDS011;47983;53.016;-2.260;2023-07-16T06:08:45;6.57;;;1.20;;
59306;SDS011;47983;53.016;-2.260;2023-07-16T06:11:13;10.20;;;1.45;;
59306;SDS011;47983;53.016;-2.260;2023-07-16T06:13:41;7.50;;;1.35;;
59306;SDS011;47983;53.016;-2.260;2023-07-16T06:16:09;5.78;;;1.02;;
59306;SDS011;47983;53.016;-2.260;2023-07-16T06:18:37;8.50;;;1.33;;
59306;SDS011;47983;53.016;-2.260;2023-07-16T06:21:05;7.88;;;1.63;;
59306;SDS011;47983;53.016;-2.260;2023-07-16T06:23:33;10.00;;;1.80;;
59306;SDS011;47983;53.016;-2.260;2023-07-16T06:26:01;13.07;;;2.15;;
59306;SDS011;47983;53.016;-2.260;2023-07-16T06:28:29;8.43;;;1.27;;
59306;SDS011;47983;53.016;-2.260;2023-07-16T06:30:57;8.35;;;1.20;;
59306;SDS011;47983;53.016;-2.260;2023-07-16T06:33:25;14.07;;;1.70;;
59306;SDS011;47983;53.016;-2.260;2023-07-16T06:35:54;5.15;;;1.42;;
59306;SDS011;47983;53.016;-2.260;2023-07-16T06:38:21;6.47;;;1.70;;
59306;SDS011;47983;53.016;-2.260;2023-07-16T06:40:49;6.55;;;1.30;;
59306;SDS011;47983;53.016;-2.260;2023-07-16T06:43:18;5.93;;;1.30;;
59306;SDS011;47983;53.016;-2.260;2023-07-16T06:45:46;6.18;;;1.50;;
59306;SDS011;47983;53.016;-2.260;2023-07-16T06:48:16;7.35;;;1.50;;
59306;SDS011;47983;53.016;-2.260;2023-07-16T06:50:44;7.35;;;1.50;;
59306;SDS011;47983;53.016;-2.260;2023-07-16T06:53:12;11.63;;;1.38;;
59306;SDS011;47983;53.016;-2.260;2023-07-16T06:55:40;10.63;;;1.30;;
59306;SDS011;47983;53.016;-2.260;2023-07-16T06:58:11;8.48;;;1.42;;
59306;SDS011;47983;53.016;-2.260;2023-07-16T07:00:40;5.40;;;1.10;;
59306;SDS011;47983;53.016;-2.260;2023-07-16T07:03:08;7.32;;;1.50;;
59306;SDS011;47983;53.016;-2.260;2023-07-16T07:05:36;6.65;;;1.30;;
59306;SDS011;47983;53.016;-2.260;2023-07-16T07:08:08;8.05;;;1.90;;
59306;SDS011;47983;53.016;-2.260;2023-07-16T07:10:36;5.88;;;1.05;;
59306;SDS011;47983;53.016;-2.260;2023-07-16T07:13:05;7.00;;;1.50;;
59306;SDS011;47983;53.016;-2.260;2023-07-16T07:15:32;7.60;;;1.98;;
59306;SDS011;47983;53.016;-2.260;2023-07-16T07:18:00;7.68;;;1.30;;
59306;SDS011;47983;53.016;-2.260;2023-07-16T07:20:28;7.03;;;1.20;;
59306;SDS011;47983;53.016;-2.260;2023-07-16T07:22:56;7.13;;;1.60;;
59306;SDS011;47983;53.016;-2.260;2023-07-16T07:25:24;6.38;;;1.33;;
59306;SDS011;47983;53.016;-2.260;2023-07-16T07:27:54;7.53;;;1.25;;
59306;SDS011;47983;53.016;-2.260;2023-07-16T07:30:22;6.10;;;1.42;;
59306;SDS011;47983;53.016;-2.260;2023-07-16T07:32:50;10.07;;;2.20;;
59306;SDS011;47983;53.016;-2.260;2023-07-16T07:35:18;7.15;;;1.23;;
59306;SDS011;47983;53.016;-2.260;2023-07-16T07:37:45;6.35;;;1.00;;
59306;SDS011;47983;53.016;-2.260;2023-07-16T07:40:13;2.63;;;0.80;;
59306;SDS011;47983;53.016;-2.260;2023-07-16T07:42:41;4.07;;;0.95;;
59306;SDS011;47983;53.016;-2.260;2023-07-16T07:45:09;4.43;;;1.52;;
59306;SDS011;47983;53.016;-2.260;2023-07-16T07:47:37;5.47;;;1.15;;
59306;SDS011;47983;53.016;-2.260;2023-07-16T07:50:05;7.65;;;1.08;;
59306;SDS011;47983;53.016;-2.260;2023-07-16T07:52:33;3.50;;;1.00;;
59306;SDS011;47983;53.016;-2.260;2023-07-16T07:55:01;6.47;;;1.25;;
59306;SDS011;47983;53.016;-2.260;2023-07-16T07:57:29;7.30;;;1.45;;
59306;SDS011;47983;53.016;-2.260;2023-07-16T07:59:57;8.13;;;1.27;;
59306;SDS011;47983;53.016;-2.260;2023-07-16T08:02:28;3.22;;;1.38;;
59306;SDS011;47983;53.016;-2.260;2023-07-16T08:04:56;9.38;;;1.35;;
59306;SDS011;47983;53.016;-2.260;2023-07-16T08:07:24;5.65;;;1.20;;
59306;SDS011;47983;53.016;-2.260;2023-07-16T08:09:52;8.38;;;1.92;;
59306;SDS011;47983;53.016;-2.260;2023-07-16T08:12:20;2.58;;;0.98;;
59306;SDS011;47983;53.016;-2.260;2023-07-16T08:14:48;3.58;;;1.05;;
59306;SDS011;47983;53.016;-2.260;2023-07-16T08:17:16;9.00;;;1.00;;
59306;SDS011;47983;53.016;-2.260;2023-07-16T08:19:43;7.35;;;1.13;;
59306;SDS011;47983;53.016;-2.260;2023-07-16T08:22:11;3.33;;;0.85;;
59306;SDS011;47983;53.016;-2.260;2023-07-16T08:24:39;4.65;;;1.67;;
59306;SDS011;47983;53.016;-2.260;2023-07-16T08:27:07;4.00;;;1.10;;
59306;SDS011;47983;53.016;-2.260;2023-07-16T08:29:35;5.63;;;1.25;;
59306;SDS011;47983;53.016;-2.260;2023-07-16T08:32:04;11.60;;;2.08;;
59306;SDS011;47983;53.016;-2.260;2023-07-16T08:34:32;8.68;;;1.15;;
59306;SDS011;47983;53.016;-2.260;2023-07-16T08:36:59;4.90;;;0.90;;
59306;SDS011;47983;53.016;-2.260;2023-07-16T08:39:27;6.28;;;1.73;;
59306;SDS011;47983;53.016;-2.260;2023-07-16T08:41:55;2.92;;;0.90;;
59306;SDS011;47983;53.016;-2.260;2023-07-16T08:44:23;6.00;;;1.02;;
59306;SDS011;47983;53.016;-2.260;2023-07-16T08:46:51;3.20;;;0.90;;
59306;SDS011;47983;53.016;-2.260;2023-07-16T08:49:19;5.13;;;1.15;;
59306;SDS011;47983;53.016;-2.260;2023-07-16T08:51:49;7.18;;;1.40;;
59306;SDS011;47983;53.016;-2.260;2023-07-16T08:54:19;2.88;;;0.70;;
59306;SDS011;47983;53.016;-2.260;2023-07-16T08:56:47;7.35;;;1.67;;
59306;SDS011;47983;53.016;-2.260;2023-07-16T08:59:15;5.47;;;0.95;;
59306;SDS011;47983;53.016;-2.260;2023-07-16T09:01:45;2.58;;;0.80;;
59306;SDS011;47983;53.016;-2.260;2023-07-16T09:04:15;5.03;;;1.95;;
59306;SDS011;47983;53.016;-2.260;2023-07-16T09:06:43;4.80;;;1.00;;
59306;SDS011;47983;53.016;-2.260;2023-07-16T09:09:22;3.13;;;1.20;;
59306;SDS011;47983;53.016;-2.260;2023-07-16T09:11:50;4.68;;;0.90;;
59306;SDS011;47983;53.016;-2.260;2023-07-16T09:14:19;2.95;;;0.60;;
59306;SDS011;47983;53.016;-2.260;2023-07-16T09:16:50;3.38;;;0.68;;
59306;SDS011;47983;53.016;-2.260;2023-07-16T09:19:19;4.05;;;0.85;;
59306;SDS011;47983;53.016;-2.260;2023-07-16T09:21:48;7.03;;;1.00;;
59306;SDS011;47983;53.016;-2.260;2023-07-16T09:24:16;3.72;;;0.95;;
59306;SDS011;47983;53.016;-2.260;2023-07-16T09:26:54;3.95;;;0.70;;
59306;SDS011;47983;53.016;-2.260;2023-07-16T09:29:24;2.80;;;0.80;;
59306;SDS011;47983;53.016;-2.260;2023-07-16T09:32:02;4.93;;;1.33;;
59306;SDS011;47983;53.016;-2.260;2023-07-16T09:34:32;3.47;;;0.65;;
59306;SDS011;47983;53.016;-2.260;2023-07-16T09:37:00;4.05;;;0.93;;
59306;SDS011;47983;53.016;-2.260;2023-07-16T09:39:28;4.90;;;1.10;;
59306;SDS011;47983;53.016;-2.260;2023-07-16T09:41:58;3.50;;;0.73;;
59306;SDS011;47983;53.016;-2.260;2023-07-16T09:44:26;2.67;;;1.05;;
59306;SDS011;47983;53.016;-2.260;2023-07-16T09:46:54;4.32;;;0.88;;
59306;SDS011;47983;53.016;-2.260;2023-07-16T09:49:22;2.63;;;0.82;;
59306;SDS011;47983;53.016;-2.260;2023-07-16T09:51:51;3.22;;;0.55;;
59306;SDS011;47983;53.016;-2.260;2023-07-16T09:54:23;2.83;;;0.60;;
59306;SDS011;47983;53.016;-2.260;2023-07-16T09:56:54;6.50;;;0.90;;
59306;SDS011;47983;53.016;-2.260;2023-07-16T09:59:27;3.97;;;1.05;;
59306;SDS011;47983;53.016;-2.260;2023-07-16T10:01:57;3.20;;;0.77;;
59306;SDS011;47983;53.016;-2.260;2023-07-16T10:04:25;3.70;;;0.70;;
59306;SDS011;47983;53.016;-2.260;2023-07-16T10:06:59;1.10;;;0.40;;
59306;SDS011;47983;53.016;-2.260;2023-07-16T10:09:38;2.28;;;0.65;;
59306;SDS011;47983;53.016;-2.260;2023-07-16T10:12:12;2.50;;;0.75;;
59306;SDS011;47983;53.016;-2.260;2023-07-16T10:14:54;5.00;;;0.60;;
59306;SDS011;47983;53.016;-2.260;2023-07-16T10:17:29;3.80;;;1.52;;
59306;SDS011;47983;53.016;-2.260;2023-07-16T10:19:59;2.88;;;0.50;;
59306;SDS011;47983;53.016;-2.260;2023-07-16T10:22:40;3.03;;;1.27;;
59306;SDS011;47983;53.016;-2.260;2023-07-16T10:25:10;3.42;;;0.70;;
59306;SDS011;47983;53.016;-2.260;2023-07-16T10:27:38;2.37;;;0.33;;
59306;SDS011;47983;53.016;-2.260;2023-07-16T10:30:06;2.53;;;0.60;;
59306;SDS011;47983;53.016;-2.260;2023-07-16T10:32:34;1.33;;;0.38;;
59306;SDS011;47983;53.016;-2.260;2023-07-16T10:35:03;2.03;;;0.60;;
59306;SDS011;47983;53.016;-2.260;2023-07-16T10:37:32;1.73;;;0.35;;
59306;SDS011;47983;53.016;-2.260;2023-07-16T10:40:00;2.28;;;0.63;;
59306;SDS011;47983;53.016;-2.260;2023-07-16T10:42:32;1.35;;;0.35;;
59306;SDS011;47983;53.016;-2.260;2023-07-16T10:45:03;1.45;;;0.50;;
59306;SDS011;47983;53.016;-2.260;2023-07-16T10:47:33;1.65;;;0.75;;
59306;SDS011;47983;53.016;-2.260;2023-07-16T10:50:08;1.80;;;0.40;;
59306;SDS011;47983;53.016;-2.260;2023-07-16T10:52:36;2.85;;;0.73;;
59306;SDS011;47983;53.016;-2.260;2023-07-16T10:55:05;3.13;;;0.68;;
59306;SDS011;47983;53.016;-2.260;2023-07-16T10:57:33;1.35;;;0.50;;
59306;SDS011;47983;53.016;-2.260;2023-07-16T11:00:02;1.30;;;0.47;;
59306;SDS011;47983;53.016;-2.260;2023-07-16T11:02:31;0.30;;;0.20;;
59306;SDS011;47983;53.016;-2.260;2023-07-16T11:04:59;1.65;;;0.30;;
59306;SDS011;47983;53.016;-2.260;2023-07-16T11:07:29;1.17;;;0.30;;
59306;SDS011;47983;53.016;-2.260;2023-07-16T11:09:57;0.30;;;0.20;;
59306;SDS011;47983;53.016;-2.260;2023-07-16T11:12:25;1.23;;;0.50;;
59306;SDS011;47983;53.016;-2.260;2023-07-16T11:14:53;1.23;;;0.35;;
59306;SDS011;47983;53.016;-2.260;2023-07-16T11:17:23;1.47;;;0.40;;
59306;SDS011;47983;53.016;-2.260;2023-07-16T11:19:54;1.08;;;0.30;;
59306;SDS011;47983;53.016;-2.260;2023-07-16T11:22:26;1.42;;;0.20;;
59306;SDS011;47983;53.016;-2.260;2023-07-16T11:24:55;1.33;;;0.52;;
59306;SDS011;47983;53.016;-2.260;2023-07-16T11:27:24;1.75;;;0.30;;
59306;SDS011;47983;53.016;-2.260;2023-07-16T11:29:59;0.30;;;0.20;;
59306;SDS011;47983;53.016;-2.260;2023-07-16T11:32:32;3.25;;;0.70;;
59306;SDS011;47983;53.016;-2.260;2023-07-16T11:35:05;1.27;;;0.40;;
59306;SDS011;47983;53.016;-2.260;2023-07-16T11:37:34;1.43;;;0.40;;
59306;SDS011;47983;53.016;-2.260;2023-07-16T11:42:32;3.07;;;0.40;;
59306;SDS011;47983;53.016;-2.260;2023-07-16T11:45:01;2.33;;;0.43;;
59306;SDS011;47983;53.016;-2.260;2023-07-16T11:47:32;1.98;;;0.28;;
59306;SDS011;47983;53.016;-2.260;2023-07-16T11:50:00;1.50;;;0.30;;
59306;SDS011;47983;53.016;-2.260;2023-07-16T11:52:29;1.50;;;0.40;;
59306;SDS011;47983;53.016;-2.260;2023-07-16T11:54:57;0.20;;;0.17;;
59306;SDS011;47983;53.016;-2.260;2023-07-16T11:57:30;1.77;;;0.50;;
59306;SDS011;47983;53.016;-2.260;2023-07-16T11:59:58;3.05;;;0.30;;
59306;SDS011;47983;53.016;-2.260;2023-07-16T12:02:26;1.13;;;0.20;;
59306;SDS011;47983;53.016;-2.260;2023-07-16T12:04:54;2.75;;;0.73;;
59306;SDS011;47983;53.016;-2.260;2023-07-16T12:10:02;2.87;;;0.83;;
59306;SDS011;47983;53.016;-2.260;2023-07-16T12:12:32;0.85;;;0.40;;
59306;SDS011;47983;53.016;-2.260;2023-07-16T12:15:06;0.85;;;0.32;;
59306;SDS011;47983;53.016;-2.260;2023-07-16T12:17:35;1.92;;;0.43;;
59306;SDS011;47983;53.016;-2.260;2023-07-16T12:20:03;2.42;;;0.40;;
59306;SDS011;47983;53.016;-2.260;2023-07-16T12:22:32;1.55;;;0.50;;
59306;SDS011;47983;53.016;-2.260;2023-07-16T12:24:59;0.57;;;0.20;;
59306;SDS011;47983;53.016;-2.260;2023-07-16T12:27:27;1.30;;;0.30;;
59306;SDS011;47983;53.016;-2.260;2023-07-16T12:29:55;3.53;;;0.30;;
59306;SDS011;47983;53.016;-2.260;2023-07-16T12:32:23;1.63;;;0.40;;
59306;SDS011;47983;53.016;-2.260;2023-07-16T12:34:51;1.95;;;0.30;;
59306;SDS011;47983;53.016;-2.260;2023-07-16T12:37:18;0.50;;;0.20;;
59306;SDS011;47983;53.016;-2.260;2023-07-16T12:39:46;2.22;;;0.22;;
59306;SDS011;47983;53.016;-2.260;2023-07-16T12:42:13;1.10;;;0.35;;
59306;SDS011;47983;53.016;-2.260;2023-07-16T12:44:41;2.22;;;0.38;;
59306;SDS011;47983;53.016;-2.260;2023-07-16T12:47:09;2.17;;;0.60;;
59306;SDS011;47983;53.016;-2.260;2023-07-16T12:49:37;1.63;;;0.40;;
59306;SDS011;47983;53.016;-2.260;2023-07-16T12:52:05;0.93;;;0.30;;
59306;SDS011;47983;53.016;-2.260;2023-07-16T12:54:33;0.57;;;0.20;;
59306;SDS011;47983;53.016;-2.260;2023-07-16T12:57:00;0.50;;;0.20;;
59306;SDS011;47983;53.016;-2.260;2023-07-16T12:59:28;1.20;;;0.45;;
59306;SDS011;47983;53.016;-2.260;2023-07-16T13:01:56;1.00;;;0.32;;
59306;SDS011;47983;53.016;-2.260;2023-07-16T13:04:24;0.98;;;0.45;;
59306;SDS011;47983;53.016;-2.260;2023-07-16T13:06:52;1.50;;;0.50;;
59306;SDS011;47983;53.016;-2.260;2023-07-16T13:09:19;2.58;;;0.47;;
59306;SDS011;47983;53.016;-2.260;2023-07-16T13:11:47;2.25;;;0.40;;
59306;SDS011;47983;53.016;-2.260;2023-07-16T13:14:16;1.35;;;0.40;;
59306;SDS011;47983;53.016;-2.260;2023-07-16T13:16:44;1.55;;;0.40;;
59306;SDS011;47983;53.016;-2.260;2023-07-16T13:19:12;2.15;;;0.50;;
59306;SDS011;47983;53.016;-2.260;2023-07-16T13:21:41;0.40;;;0.20;;
59306;SDS011;47983;53.016;-2.260;2023-07-16T13:24:08;1.10;;;0.50;;
59306;SDS011;47983;53.016;-2.260;2023-07-16T13:26:36;2.17;;;0.50;;
59306;SDS011;47983;53.016;-2.260;2023-07-16T13:29:04;1.90;;;0.35;;
59306;SDS011;47983;53.016;-2.260;2023-07-16T13:31:32;2.08;;;0.55;;
59306;SDS011;47983;53.016;-2.260;2023-07-16T13:33:59;2.03;;;0.50;;
59306;SDS011;47983;53.016;-2.260;2023-07-16T13:36:27;2.95;;;0.40;;
59306;SDS011;47983;53.016;-2.260;2023-07-16T13:38:55;3.13;;;0.50;;
59306;SDS011;47983;53.016;-2.260;2023-07-16T13:41:22;1.80;;;0.40;;
59306;SDS011;47983;53.016;-2.260;2023-07-16T13:43:50;0.30;;;0.20;;
59306;SDS011;47983;53.016;-2.260;2023-07-16T13:46:18;1.52;;;0.40;;
59306;SDS011;47983;53.016;-2.260;2023-07-16T13:48:46;3.00;;;0.75;;
59306;SDS011;47983;53.016;-2.260;2023-07-16T13:51:22;4.53;;;0.82;;
59306;SDS011;47983;53.016;-2.260;2023-07-16T13:53:50;0.88;;;0.50;;
59306;SDS011;47983;53.016;-2.260;2023-07-16T13:56:17;2.60;;;0.95;;
59306;SDS011;47983;53.016;-2.260;2023-07-16T13:58:46;2.75;;;0.40;;
59306;SDS011;47983;53.016;-2.260;2023-07-16T14:01:15;2.20;;;0.30;;
59306;SDS011;47983;53.016;-2.260;2023-07-16T14:03:43;3.17;;;0.65;;
59306;SDS011;47983;53.016;-2.260;2023-07-16T14:06:11;20.02;;;0.60;;
59306;SDS011;47983;53.016;-2.260;2023-07-16T14:08:39;2.85;;;0.43;;
59306;SDS011;47983;53.016;-2.260;2023-07-16T14:11:06;3.25;;;0.60;;
59306;SDS011;47983;53.016;-2.260;2023-07-16T14:13:34;1.23;;;0.40;;
59306;SDS011;47983;53.016;-2.260;2023-07-16T14:16:02;3.35;;;0.65;;
59306;SDS011;47983;53.016;-2.260;2023-07-16T14:18:30;2.53;;;0.63;;
59306;SDS011;47983;53.016;-2.260;2023-07-16T14:20:59;2.05;;;0.60;;
59306;SDS011;47983;53.016;-2.260;2023-07-16T14:23:30;1.63;;;0.50;;
59306;SDS011;47983;53.016;-2.260;2023-07-16T14:25:57;2.05;;;0.50;;
59306;SDS011;47983;53.016;-2.260;2023-07-16T14:28:25;4.93;;;0.60;;
59306;SDS011;47983;53.016;-2.260;2023-07-16T14:30:53;1.40;;;0.50;;
59306;SDS011;47983;53.016;-2.260;2023-07-16T14:33:21;3.72;;;0.60;;
59306;SDS011;47983;53.016;-2.260;2023-07-16T14:35:48;3.65;;;0.60;;
59306;SDS011;47983;53.016;-2.260;2023-07-16T14:38:16;3.80;;;0.70;;
59306;SDS011;47983;53.016;-2.260;2023-07-16T14:40:44;2.45;;;0.68;;
59306;SDS011;47983;53.016;-2.260;2023-07-16T14:43:12;3.00;;;0.40;;
59306;SDS011;47983;53.016;-2.260;2023-07-16T14:45:39;3.25;;;0.70;;
59306;SDS011;47983;53.016;-2.260;2023-07-16T14:48:07;3.60;;;0.63;;
59306;SDS011;47983;53.016;-2.260;2023-07-16T14:50:36;6.53;;;0.77;;
59306;SDS011;47983;53.016;-2.260;2023-07-16T14:53:04;3.20;;;0.55;;
59306;SDS011;47983;53.016;-2.260;2023-07-16T14:55:33;2.40;;;0.77;;
59306;SDS011;47983;53.016;-2.260;2023-07-16T14:58:01;1.45;;;0.38;;